sensor_id;sensor_type;location;lat;lon;timestamp;P1;durP1;ratioP1;P2;durP2;ratioP2
34317;SDS011;20582;52.196;20.952;2023-06-10T00:00:04;14.48;;;10.65;;
34317;SDS011;20582;52.196;20.952;2023-06-10T00:02:31;18.13;;;11.07;;
34317;SDS011;20582;52.196;20.952;2023-06-10T00:04:57;17.30;;;11.45;;
34317;SDS011;20582;52.196;20.952;2023-06-10T00:07:23;14.63;;;11.13;;
34317;SDS011;20582;52.196;20.952;2023-06-10T00:09:49;16.08;;;11.18;;
34317;SDS011;20582;52.196;20.952;2023-06-10T00:12:15;16.27;;;11.75;;
34317;SDS011;20582;52.196;20.952;2023-06-10T00:14:42;17.42;;;11.15;;
34317;SDS011;20582;52.196;20.952;2023-06-10T00:17:08;16.85;;;11.70;;
34317;SDS011;20582;52.196;20.952;2023-06-10T00:19:35;19.38;;;11.65;;
34317;SDS011;20582;52.196;20.952;2023-06-10T00:22:01;18.60;;;11.77;;
34317;SDS011;20582;52.196;20.952;2023-06-10T00:24:28;15.68;;;11.98;;
34317;SDS011;20582;52.196;20.952;2023-06-10T00:26:54;15.40;;;11.15;;
34317;SDS011;20582;52.196;20.952;2023-06-10T00:29:20;17.35;;;10.55;;
34317;SDS011;20582;52.196;20.952;2023-06-10T00:31:46;17.90;;;10.32;;
34317;SDS011;20582;52.196;20.952;2023-06-10T00:34:12;16.55;;;9.70;;
34317;SDS011;20582;52.196;20.952;2023-06-10T00:36:38;14.90;;;8.77;;
34317;SDS011;20582;52.196;20.952;2023-06-10T00:39:04;12.60;;;7.82;;
34317;SDS011;20582;52.196;20.952;2023-06-10T00:41:30;10.82;;;7.00;;
34317;SDS011;20582;52.196;20.952;2023-06-10T00:43:58;11.20;;;6.55;;
34317;SDS011;20582;52.196;20.952;2023-06-10T00:46:24;13.25;;;7.30;;
34317;SDS011;20582;52.196;20.952;2023-06-10T00:48:51;12.27;;;6.78;;
34317;SDS011;20582;52.196;20.952;2023-06-10T00:51:18;9.95;;;7.03;;
34317;SDS011;20582;52.196;20.952;2023-06-10T00:53:44;16.85;;;7.22;;
34317;SDS011;20582;52.196;20.952;2023-06-10T00:56:10;17.98;;;6.82;;
34317;SDS011;20582;52.196;20.952;2023-06-10T00:58:36;14.10;;;7.00;;
34317;SDS011;20582;52.196;20.952;2023-06-10T01:01:02;11.60;;;6.78;;
34317;SDS011;20582;52.196;20.952;2023-06-10T01:03:31;10.32;;;6.40;;
34317;SDS011;20582;52.196;20.952;2023-06-10T01:06:21;10.32;;;6.05;;
34317;SDS011;20582;52.196;20.952;2023-06-10T01:08:56;12.43;;;6.68;;
34317;SDS011;20582;52.196;20.952;2023-06-10T01:11:28;12.07;;;6.70;;
34317;SDS011;20582;52.196;20.952;2023-06-10T01:13:54;12.20;;;6.78;;
34317;SDS011;20582;52.196;20.952;2023-06-10T01:16:21;12.80;;;6.78;;
34317;SDS011;20582;52.196;20.952;2023-06-10T01:18:47;14.95;;;6.88;;
34317;SDS011;20582;52.196;20.952;2023-06-10T01:21:19;12.52;;;6.50;;
34317;SDS011;20582;52.196;20.952;2023-06-10T01:23:46;14.98;;;6.40;;
34317;SDS011;20582;52.196;20.952;2023-06-10T01:26:12;14.27;;;6.50;;
34317;SDS011;20582;52.196;20.952;2023-06-10T01:31:31;13.63;;;6.38;;
34317;SDS011;20582;52.196;20.952;2023-06-10T01:33:59;13.82;;;5.93;;
34317;SDS011;20582;52.196;20.952;2023-06-10T01:36:25;13.20;;;6.10;;
34317;SDS011;20582;52.196;20.952;2023-06-10T01:38:51;16.38;;;6.05;;
34317;SDS011;20582;52.196;20.952;2023-06-10T01:41:18;11.75;;;6.10;;
34317;SDS011;20582;52.196;20.952;2023-06-10T01:43:46;12.65;;;6.38;;
34317;SDS011;20582;52.196;20.952;2023-06-10T01:46:12;11.00;;;5.80;;
34317;SDS011;20582;52.196;20.952;2023-06-10T01:48:38;13.35;;;5.88;;
34317;SDS011;20582;52.196;20.952;2023-06-10T01:51:04;15.88;;;6.57;;
34317;SDS011;20582;52.196;20.952;2023-06-10T01:53:31;11.98;;;5.82;;
34317;SDS011;20582;52.196;20.952;2023-06-10T01:55:57;12.75;;;5.90;;
34317;SDS011;20582;52.196;20.952;2023-06-10T01:58:23;16.33;;;5.97;;
34317;SDS011;20582;52.196;20.952;2023-06-10T02:00:49;15.30;;;6.22;;
34317;SDS011;20582;52.196;20.952;2023-06-10T02:03:15;11.93;;;5.85;;
34317;SDS011;20582;52.196;20.952;2023-06-10T02:05:41;13.35;;;6.00;;
34317;SDS011;20582;52.196;20.952;2023-06-10T02:08:07;11.23;;;6.28;;
34317;SDS011;20582;52.196;20.952;2023-06-10T02:10:32;12.52;;;5.82;;
34317;SDS011;20582;52.196;20.952;2023-06-10T02:12:59;12.38;;;5.82;;
34317;SDS011;20582;52.196;20.952;2023-06-10T02:15:25;14.60;;;6.50;;
34317;SDS011;20582;52.196;20.952;2023-06-10T02:17:51;12.95;;;6.03;;
34317;SDS011;20582;52.196;20.952;2023-06-10T02:20:17;15.25;;;5.93;;
34317;SDS011;20582;52.196;20.952;2023-06-10T02:22:44;13.23;;;5.45;;
34317;SDS011;20582;52.196;20.952;2023-06-10T02:25:10;12.85;;;6.20;;
34317;SDS011;20582;52.196;20.952;2023-06-10T02:27:36;13.85;;;5.90;;
34317;SDS011;20582;52.196;20.952;2023-06-10T02:30:02;11.05;;;5.70;;
34317;SDS011;20582;52.196;20.952;2023-06-10T02:32:27;15.50;;;6.35;;
34317;SDS011;20582;52.196;20.952;2023-06-10T02:34:54;13.73;;;6.13;;
34317;SDS011;20582;52.196;20.952;2023-06-10T02:37:20;12.95;;;5.78;;
34317;SDS011;20582;52.196;20.952;2023-06-10T02:39:46;17.63;;;5.85;;
34317;SDS011;20582;52.196;20.952;2023-06-10T02:42:12;13.15;;;5.65;;
34317;SDS011;20582;52.196;20.952;2023-06-10T02:44:38;13.10;;;5.90;;
34317;SDS011;20582;52.196;20.952;2023-06-10T02:47:04;16.10;;;6.03;;
34317;SDS011;20582;52.196;20.952;2023-06-10T02:49:30;12.95;;;5.60;;
34317;SDS011;20582;52.196;20.952;2023-06-10T02:51:56;11.60;;;5.90;;
34317;SDS011;20582;52.196;20.952;2023-06-10T02:54:23;13.55;;;5.65;;
34317;SDS011;20582;52.196;20.952;2023-06-10T02:56:50;11.18;;;5.60;;
34317;SDS011;20582;52.196;20.952;2023-06-10T02:59:16;9.30;;;5.13;;
34317;SDS011;20582;52.196;20.952;2023-06-10T03:01:42;13.80;;;5.63;;
34317;SDS011;20582;52.196;20.952;2023-06-10T03:04:08;17.70;;;5.93;;
34317;SDS011;20582;52.196;20.952;2023-06-10T03:06:34;10.05;;;5.50;;
34317;SDS011;20582;52.196;20.952;2023-06-10T03:09:01;18.38;;;5.82;;
34317;SDS011;20582;52.196;20.952;2023-06-10T03:11:29;12.50;;;6.05;;
34317;SDS011;20582;52.196;20.952;2023-06-10T03:13:55;11.63;;;6.30;;
34317;SDS011;20582;52.196;20.952;2023-06-10T03:16:20;13.73;;;6.03;;
34317;SDS011;20582;52.196;20.952;2023-06-10T03:18:46;12.70;;;5.28;;
34317;SDS011;20582;52.196;20.952;2023-06-10T03:21:13;14.55;;;6.05;;
34317;SDS011;20582;52.196;20.952;2023-06-10T03:23:39;11.77;;;5.80;;
34317;SDS011;20582;52.196;20.952;2023-06-10T03:26:05;14.88;;;5.47;;
34317;SDS011;20582;52.196;20.952;2023-06-10T03:28:31;19.67;;;6.13;;
34317;SDS011;20582;52.196;20.952;2023-06-10T03:30:57;16.25;;;5.30;;
34317;SDS011;20582;52.196;20.952;2023-06-10T03:33:23;12.35;;;5.53;;
34317;SDS011;20582;52.196;20.952;2023-06-10T03:35:49;17.65;;;5.45;;
34317;SDS011;20582;52.196;20.952;2023-06-10T03:38:16;14.10;;;5.55;;
34317;SDS011;20582;52.196;20.952;2023-06-10T03:40:42;14.30;;;5.30;;
34317;SDS011;20582;52.196;20.952;2023-06-10T03:43:08;10.65;;;5.85;;
34317;SDS011;20582;52.196;20.952;2023-06-10T03:45:34;12.95;;;5.50;;
34317;SDS011;20582;52.196;20.952;2023-06-10T03:48:01;11.70;;;5.88;;
34317;SDS011;20582;52.196;20.952;2023-06-10T03:50:28;11.68;;;5.25;;
34317;SDS011;20582;52.196;20.952;2023-06-10T03:52:54;9.90;;;5.13;;
34317;SDS011;20582;52.196;20.952;2023-06-10T03:55:20;9.10;;;5.30;;
34317;SDS011;20582;52.196;20.952;2023-06-10T03:57:48;12.98;;;5.95;;
34317;SDS011;20582;52.196;20.952;2023-06-10T04:00:15;15.45;;;5.70;;
34317;SDS011;20582;52.196;20.952;2023-06-10T04:02:42;12.10;;;5.50;;
34317;SDS011;20582;52.196;20.952;2023-06-10T04:05:14;12.68;;;5.50;;
34317;SDS011;20582;52.196;20.952;2023-06-10T04:07:40;11.88;;;5.70;;
34317;SDS011;20582;52.196;20.952;2023-06-10T04:10:07;10.95;;;5.90;;
34317;SDS011;20582;52.196;20.952;2023-06-10T04:12:34;11.60;;;5.15;;
34317;SDS011;20582;52.196;20.952;2023-06-10T04:14:59;12.15;;;5.53;;
34317;SDS011;20582;52.196;20.952;2023-06-10T04:17:25;11.35;;;5.53;;
34317;SDS011;20582;52.196;20.952;2023-06-10T04:19:51;11.50;;;5.15;;
34317;SDS011;20582;52.196;20.952;2023-06-10T04:22:19;13.52;;;5.90;;
34317;SDS011;20582;52.196;20.952;2023-06-10T04:24:45;10.85;;;5.40;;
34317;SDS011;20582;52.196;20.952;2023-06-10T04:27:11;13.43;;;5.78;;
34317;SDS011;20582;52.196;20.952;2023-06-10T04:29:37;15.07;;;5.35;;
34317;SDS011;20582;52.196;20.952;2023-06-10T04:32:03;13.00;;;5.43;;
34317;SDS011;20582;52.196;20.952;2023-06-10T04:34:32;10.32;;;5.13;;
34317;SDS011;20582;52.196;20.952;2023-06-10T04:36:58;9.95;;;5.32;;
34317;SDS011;20582;52.196;20.952;2023-06-10T04:39:24;10.35;;;5.32;;
34317;SDS011;20582;52.196;20.952;2023-06-10T04:41:50;12.82;;;5.38;;
34317;SDS011;20582;52.196;20.952;2023-06-10T04:44:16;11.52;;;5.70;;
34317;SDS011;20582;52.196;20.952;2023-06-10T04:46:42;14.93;;;5.93;;
34317;SDS011;20582;52.196;20.952;2023-06-10T04:49:08;15.88;;;6.03;;
34317;SDS011;20582;52.196;20.952;2023-06-10T04:51:34;12.50;;;5.90;;
34317;SDS011;20582;52.196;20.952;2023-06-10T04:54:00;11.68;;;5.55;;
34317;SDS011;20582;52.196;20.952;2023-06-10T04:56:29;11.68;;;5.03;;
34317;SDS011;20582;52.196;20.952;2023-06-10T04:58:55;12.15;;;5.78;;
34317;SDS011;20582;52.196;20.952;2023-06-10T05:01:21;12.38;;;5.70;;
34317;SDS011;20582;52.196;20.952;2023-06-10T05:03:47;10.05;;;5.35;;
34317;SDS011;20582;52.196;20.952;2023-06-10T05:06:13;13.05;;;5.70;;
34317;SDS011;20582;52.196;20.952;2023-06-10T05:08:39;17.08;;;5.82;;
34317;SDS011;20582;52.196;20.952;2023-06-10T05:11:05;12.48;;;5.53;;
34317;SDS011;20582;52.196;20.952;2023-06-10T05:13:31;9.82;;;5.13;;
34317;SDS011;20582;52.196;20.952;2023-06-10T05:15:57;13.35;;;5.68;;
34317;SDS011;20582;52.196;20.952;2023-06-10T05:18:24;11.98;;;5.30;;
34317;SDS011;20582;52.196;20.952;2023-06-10T05:20:50;13.55;;;5.22;;
34317;SDS011;20582;52.196;20.952;2023-06-10T05:23:16;13.85;;;5.57;;
34317;SDS011;20582;52.196;20.952;2023-06-10T05:25:42;11.32;;;5.60;;
34317;SDS011;20582;52.196;20.952;2023-06-10T05:28:08;21.35;;;5.97;;
34317;SDS011;20582;52.196;20.952;2023-06-10T05:30:38;17.15;;;5.68;;
34317;SDS011;20582;52.196;20.952;2023-06-10T05:33:04;13.75;;;5.60;;
34317;SDS011;20582;52.196;20.952;2023-06-10T05:35:30;11.43;;;5.45;;
34317;SDS011;20582;52.196;20.952;2023-06-10T05:37:56;10.25;;;5.30;;
34317;SDS011;20582;52.196;20.952;2023-06-10T05:40:22;16.98;;;6.28;;
34317;SDS011;20582;52.196;20.952;2023-06-10T05:42:49;12.43;;;5.40;;
34317;SDS011;20582;52.196;20.952;2023-06-10T05:45:15;12.73;;;5.07;;
34317;SDS011;20582;52.196;20.952;2023-06-10T05:47:41;12.60;;;5.30;;
34317;SDS011;20582;52.196;20.952;2023-06-10T05:50:07;16.15;;;6.15;;
34317;SDS011;20582;52.196;20.952;2023-06-10T05:52:34;10.80;;;5.60;;
34317;SDS011;20582;52.196;20.952;2023-06-10T05:55:00;13.35;;;5.32;;
34317;SDS011;20582;52.196;20.952;2023-06-10T05:57:26;12.77;;;5.95;;
34317;SDS011;20582;52.196;20.952;2023-06-10T05:59:52;15.13;;;5.65;;
34317;SDS011;20582;52.196;20.952;2023-06-10T06:02:18;11.30;;;5.60;;
34317;SDS011;20582;52.196;20.952;2023-06-10T06:04:44;13.57;;;5.43;;
34317;SDS011;20582;52.196;20.952;2023-06-10T06:07:10;11.88;;;5.80;;
34317;SDS011;20582;52.196;20.952;2023-06-10T06:09:36;15.20;;;5.90;;
34317;SDS011;20582;52.196;20.952;2023-06-10T06:12:02;11.45;;;5.80;;
34317;SDS011;20582;52.196;20.952;2023-06-10T06:14:30;11.15;;;6.03;;
34317;SDS011;20582;52.196;20.952;2023-06-10T06:16:57;11.98;;;5.88;;
34317;SDS011;20582;52.196;20.952;2023-06-10T06:19:22;15.20;;;5.60;;
34317;SDS011;20582;52.196;20.952;2023-06-10T06:21:48;14.25;;;5.60;;
34317;SDS011;20582;52.196;20.952;2023-06-10T06:24:15;10.48;;;5.68;;
34317;SDS011;20582;52.196;20.952;2023-06-10T06:26:41;16.80;;;5.90;;
34317;SDS011;20582;52.196;20.952;2023-06-10T06:29:07;12.32;;;5.57;;
34317;SDS011;20582;52.196;20.952;2023-06-10T06:31:33;10.88;;;5.50;;
34317;SDS011;20582;52.196;20.952;2023-06-10T06:33:59;13.63;;;5.90;;
34317;SDS011;20582;52.196;20.952;2023-06-10T06:36:25;14.52;;;5.88;;
34317;SDS011;20582;52.196;20.952;2023-06-10T06:38:51;14.30;;;6.25;;
34317;SDS011;20582;52.196;20.952;2023-06-10T06:41:17;12.60;;;5.88;;
34317;SDS011;20582;52.196;20.952;2023-06-10T06:43:43;15.50;;;5.80;;
34317;SDS011;20582;52.196;20.952;2023-06-10T06:46:09;13.35;;;6.10;;
34317;SDS011;20582;52.196;20.952;2023-06-10T06:48:35;11.65;;;6.07;;
34317;SDS011;20582;52.196;20.952;2023-06-10T06:51:01;13.25;;;6.07;;
34317;SDS011;20582;52.196;20.952;2023-06-10T06:53:27;14.32;;;5.90;;
34317;SDS011;20582;52.196;20.952;2023-06-10T06:55:53;13.18;;;6.28;;
34317;SDS011;20582;52.196;20.952;2023-06-10T06:58:19;12.02;;;5.85;;
34317;SDS011;20582;52.196;20.952;2023-06-10T07:00:45;15.25;;;5.90;;
34317;SDS011;20582;52.196;20.952;2023-06-10T07:03:11;11.05;;;5.53;;
34317;SDS011;20582;52.196;20.952;2023-06-10T07:05:37;18.08;;;5.88;;
34317;SDS011;20582;52.196;20.952;2023-06-10T07:08:04;12.93;;;5.93;;
34317;SDS011;20582;52.196;20.952;2023-06-10T07:10:30;13.48;;;5.68;;
34317;SDS011;20582;52.196;20.952;2023-06-10T07:12:56;12.88;;;5.88;;
34317;SDS011;20582;52.196;20.952;2023-06-10T07:15:21;13.02;;;6.20;;
34317;SDS011;20582;52.196;20.952;2023-06-10T07:17:47;15.60;;;6.38;;
34317;SDS011;20582;52.196;20.952;2023-06-10T07:20:13;12.38;;;5.45;;
34317;SDS011;20582;52.196;20.952;2023-06-10T07:22:40;13.05;;;5.70;;
34317;SDS011;20582;52.196;20.952;2023-06-10T07:25:06;14.63;;;6.22;;
34317;SDS011;20582;52.196;20.952;2023-06-10T07:27:32;15.15;;;6.25;;
34317;SDS011;20582;52.196;20.952;2023-06-10T07:29:58;10.95;;;6.10;;
34317;SDS011;20582;52.196;20.952;2023-06-10T07:32:25;15.20;;;5.90;;
34317;SDS011;20582;52.196;20.952;2023-06-10T07:34:51;14.18;;;6.10;;
34317;SDS011;20582;52.196;20.952;2023-06-10T07:37:17;11.43;;;5.95;;
34317;SDS011;20582;52.196;20.952;2023-06-10T07:39:44;12.50;;;6.15;;
34317;SDS011;20582;52.196;20.952;2023-06-10T07:42:10;11.00;;;6.50;;
34317;SDS011;20582;52.196;20.952;2023-06-10T07:44:36;13.23;;;6.28;;
34317;SDS011;20582;52.196;20.952;2023-06-10T07:47:02;14.63;;;6.20;;
34317;SDS011;20582;52.196;20.952;2023-06-10T07:49:28;13.50;;;5.93;;
34317;SDS011;20582;52.196;20.952;2023-06-10T07:51:55;13.45;;;6.15;;
34317;SDS011;20582;52.196;20.952;2023-06-10T07:54:21;12.68;;;5.93;;
34317;SDS011;20582;52.196;20.952;2023-06-10T07:56:47;14.30;;;6.10;;
34317;SDS011;20582;52.196;20.952;2023-06-10T07:59:13;12.18;;;5.63;;
34317;SDS011;20582;52.196;20.952;2023-06-10T08:01:39;16.88;;;5.38;;
34317;SDS011;20582;52.196;20.952;2023-06-10T08:04:07;12.63;;;5.50;;
34317;SDS011;20582;52.196;20.952;2023-06-10T08:06:33;10.38;;;5.68;;
34317;SDS011;20582;52.196;20.952;2023-06-10T08:08:59;16.08;;;5.80;;
34317;SDS011;20582;52.196;20.952;2023-06-10T08:11:25;11.13;;;5.68;;
34317;SDS011;20582;52.196;20.952;2023-06-10T08:13:53;11.02;;;6.05;;
34317;SDS011;20582;52.196;20.952;2023-06-10T08:16:19;10.75;;;6.15;;
34317;SDS011;20582;52.196;20.952;2023-06-10T08:18:45;14.48;;;6.15;;
34317;SDS011;20582;52.196;20.952;2023-06-10T08:21:11;12.85;;;5.75;;
34317;SDS011;20582;52.196;20.952;2023-06-10T08:23:37;15.02;;;6.25;;
34317;SDS011;20582;52.196;20.952;2023-06-10T08:26:04;16.55;;;5.97;;
34317;SDS011;20582;52.196;20.952;2023-06-10T08:28:29;11.70;;;5.50;;
34317;SDS011;20582;52.196;20.952;2023-06-10T08:30:55;15.10;;;5.85;;
34317;SDS011;20582;52.196;20.952;2023-06-10T08:33:21;17.08;;;5.85;;
34317;SDS011;20582;52.196;20.952;2023-06-10T08:35:47;10.00;;;5.63;;
34317;SDS011;20582;52.196;20.952;2023-06-10T08:38:13;13.00;;;5.90;;
34317;SDS011;20582;52.196;20.952;2023-06-10T08:40:41;10.48;;;5.47;;
34317;SDS011;20582;52.196;20.952;2023-06-10T08:43:07;9.30;;;5.38;;
34317;SDS011;20582;52.196;20.952;2023-06-10T08:45:36;12.80;;;5.95;;
34317;SDS011;20582;52.196;20.952;2023-06-10T08:48:03;12.55;;;5.82;;
34317;SDS011;20582;52.196;20.952;2023-06-10T08:50:32;13.27;;;5.93;;
34317;SDS011;20582;52.196;20.952;2023-06-10T08:52:59;13.68;;;6.05;;
34317;SDS011;20582;52.196;20.952;2023-06-10T08:55:32;15.90;;;6.30;;
34317;SDS011;20582;52.196;20.952;2023-06-10T08:58:01;13.18;;;6.28;;
34317;SDS011;20582;52.196;20.952;2023-06-10T09:00:28;13.10;;;5.93;;
34317;SDS011;20582;52.196;20.952;2023-06-10T09:02:55;17.35;;;5.82;;
34317;SDS011;20582;52.196;20.952;2023-06-10T09:05:21;8.50;;;5.25;;
34317;SDS011;20582;52.196;20.952;2023-06-10T09:07:48;12.45;;;6.05;;
34317;SDS011;20582;52.196;20.952;2023-06-10T09:10:14;13.43;;;5.65;;
34317;SDS011;20582;52.196;20.952;2023-06-10T09:12:40;12.05;;;5.45;;
34317;SDS011;20582;52.196;20.952;2023-06-10T09:15:06;11.13;;;5.68;;
34317;SDS011;20582;52.196;20.952;2023-06-10T09:17:32;13.73;;;6.07;;
34317;SDS011;20582;52.196;20.952;2023-06-10T09:20:01;11.23;;;6.03;;
34317;SDS011;20582;52.196;20.952;2023-06-10T09:22:27;11.88;;;5.82;;
34317;SDS011;20582;52.196;20.952;2023-06-10T09:25:12;12.80;;;6.40;;
34317;SDS011;20582;52.196;20.952;2023-06-10T09:27:48;11.13;;;6.30;;
34317;SDS011;20582;52.196;20.952;2023-06-10T09:30:28;15.57;;;6.35;;
34317;SDS011;20582;52.196;20.952;2023-06-10T09:32:55;15.40;;;5.80;;
34317;SDS011;20582;52.196;20.952;2023-06-10T09:35:24;11.90;;;6.32;;
34317;SDS011;20582;52.196;20.952;2023-06-10T09:37:57;13.85;;;5.57;;
34317;SDS011;20582;52.196;20.952;2023-06-10T09:40:23;14.15;;;6.00;;
34317;SDS011;20582;52.196;20.952;2023-06-10T09:42:57;10.02;;;5.93;;
34317;SDS011;20582;52.196;20.952;2023-06-10T09:45:23;12.70;;;5.88;;
34317;SDS011;20582;52.196;20.952;2023-06-10T09:47:53;10.43;;;5.82;;
34317;SDS011;20582;52.196;20.952;2023-06-10T09:50:20;10.48;;;5.22;;
34317;SDS011;20582;52.196;20.952;2023-06-10T09:52:46;13.80;;;6.03;;
34317;SDS011;20582;52.196;20.952;2023-06-10T09:55:13;12.02;;;5.40;;
34317;SDS011;20582;52.196;20.952;2023-06-10T09:57:39;10.30;;;5.40;;
34317;SDS011;20582;52.196;20.952;2023-06-10T10:00:09;9.20;;;5.40;;
34317;SDS011;20582;52.196;20.952;2023-06-10T10:02:46;10.02;;;5.15;;
34317;SDS011;20582;52.196;20.952;2023-06-10T10:05:16;9.23;;;5.10;;
34317;SDS011;20582;52.196;20.952;2023-06-10T10:07:45;15.27;;;5.55;;
34317;SDS011;20582;52.196;20.952;2023-06-10T10:10:12;9.95;;;5.05;;
34317;SDS011;20582;52.196;20.952;2023-06-10T10:12:39;13.07;;;5.60;;
34317;SDS011;20582;52.196;20.952;2023-06-10T10:15:06;13.25;;;5.65;;
34317;SDS011;20582;52.196;20.952;2023-06-10T10:17:34;10.90;;;5.30;;
34317;SDS011;20582;52.196;20.952;2023-06-10T10:20:04;10.25;;;5.43;;
34317;SDS011;20582;52.196;20.952;2023-06-10T10:22:43;7.57;;;4.82;;
34317;SDS011;20582;52.196;20.952;2023-06-10T10:25:23;9.48;;;5.07;;
34317;SDS011;20582;52.196;20.952;2023-06-10T10:27:55;9.77;;;5.07;;
34317;SDS011;20582;52.196;20.952;2023-06-10T10:30:22;8.35;;;5.30;;
34317;SDS011;20582;52.196;20.952;2023-06-10T10:35:19;9.95;;;4.95;;
34317;SDS011;20582;52.196;20.952;2023-06-10T10:37:52;7.95;;;5.25;;
34317;SDS011;20582;52.196;20.952;2023-06-10T10:40:19;10.13;;;5.50;;
34317;SDS011;20582;52.196;20.952;2023-06-10T10:42:46;10.73;;;5.43;;
34317;SDS011;20582;52.196;20.952;2023-06-10T10:45:13;7.22;;;5.22;;
34317;SDS011;20582;52.196;20.952;2023-06-10T10:47:39;12.48;;;5.78;;
34317;SDS011;20582;52.196;20.952;2023-06-10T10:50:15;8.85;;;5.10;;
34317;SDS011;20582;52.196;20.952;2023-06-10T10:52:47;9.15;;;5.32;;
34317;SDS011;20582;52.196;20.952;2023-06-10T10:55:17;8.15;;;4.97;;
34317;SDS011;20582;52.196;20.952;2023-06-10T10:57:43;11.70;;;5.07;;
34317;SDS011;20582;52.196;20.952;2023-06-10T11:00:09;7.90;;;4.93;;
34317;SDS011;20582;52.196;20.952;2023-06-10T11:02:44;7.50;;;5.13;;
34317;SDS011;20582;52.196;20.952;2023-06-10T11:05:14;8.93;;;4.78;;
34317;SDS011;20582;52.196;20.952;2023-06-10T11:07:40;8.05;;;5.07;;
34317;SDS011;20582;52.196;20.952;2023-06-10T11:10:17;7.63;;;5.40;;
34317;SDS011;20582;52.196;20.952;2023-06-10T11:15:12;8.68;;;6.00;;
34317;SDS011;20582;52.196;20.952;2023-06-10T11:23:07;9.73;;;5.22;;
34317;SDS011;20582;52.196;20.952;2023-06-10T11:25:39;7.65;;;5.55;;
34317;SDS011;20582;52.196;20.952;2023-06-10T11:28:27;9.85;;;4.90;;
34317;SDS011;20582;52.196;20.952;2023-06-10T11:30:56;13.63;;;5.50;;
34317;SDS011;20582;52.196;20.952;2023-06-10T11:33:23;8.82;;;4.88;;
34317;SDS011;20582;52.196;20.952;2023-06-10T11:35:50;7.13;;;4.90;;
34317;SDS011;20582;52.196;20.952;2023-06-10T11:38:16;7.55;;;5.10;;
34317;SDS011;20582;52.196;20.952;2023-06-10T11:40:48;7.93;;;4.80;;
34317;SDS011;20582;52.196;20.952;2023-06-10T11:43:17;8.65;;;5.18;;
34317;SDS011;20582;52.196;20.952;2023-06-10T11:45:44;7.53;;;4.88;;
34317;SDS011;20582;52.196;20.952;2023-06-10T11:48:10;8.88;;;5.25;;
34317;SDS011;20582;52.196;20.952;2023-06-10T11:50:36;8.30;;;5.50;;
34317;SDS011;20582;52.196;20.952;2023-06-10T11:53:02;9.35;;;5.25;;
34317;SDS011;20582;52.196;20.952;2023-06-10T11:55:47;9.10;;;5.85;;
34317;SDS011;20582;52.196;20.952;2023-06-10T11:58:17;8.73;;;5.75;;
34317;SDS011;20582;52.196;20.952;2023-06-10T12:00:44;10.23;;;5.25;;
34317;SDS011;20582;52.196;20.952;2023-06-10T12:03:10;7.72;;;5.43;;
34317;SDS011;20582;52.196;20.952;2023-06-10T12:05:36;10.75;;;5.45;;
34317;SDS011;20582;52.196;20.952;2023-06-10T12:08:09;9.27;;;6.03;;
34317;SDS011;20582;52.196;20.952;2023-06-10T12:10:41;7.40;;;5.43;;
34317;SDS011;20582;52.196;20.952;2023-06-10T12:13:08;9.27;;;5.65;;
34317;SDS011;20582;52.196;20.952;2023-06-10T12:15:34;8.15;;;5.30;;
34317;SDS011;20582;52.196;20.952;2023-06-10T12:18:01;9.60;;;5.38;;
34317;SDS011;20582;52.196;20.952;2023-06-10T12:20:28;8.73;;;5.43;;
34317;SDS011;20582;52.196;20.952;2023-06-10T12:22:54;8.43;;;5.20;;
34317;SDS011;20582;52.196;20.952;2023-06-10T12:25:27;10.60;;;5.13;;
34317;SDS011;20582;52.196;20.952;2023-06-10T12:27:55;10.07;;;5.60;;
34317;SDS011;20582;52.196;20.952;2023-06-10T12:30:22;7.85;;;5.75;;
34317;SDS011;20582;52.196;20.952;2023-06-10T12:32:48;10.00;;;6.00;;
34317;SDS011;20582;52.196;20.952;2023-06-10T12:35:18;10.10;;;5.10;;
34317;SDS011;20582;52.196;20.952;2023-06-10T12:37:59;9.00;;;5.57;;
34317;SDS011;20582;52.196;20.952;2023-06-10T12:40:32;11.45;;;5.80;;
34317;SDS011;20582;52.196;20.952;2023-06-10T12:42:59;10.07;;;5.32;;
34317;SDS011;20582;52.196;20.952;2023-06-10T12:48:04;11.68;;;5.18;;
34317;SDS011;20582;52.196;20.952;2023-06-10T12:50:31;10.68;;;5.50;;
34317;SDS011;20582;52.196;20.952;2023-06-10T12:52:58;9.18;;;5.60;;
34317;SDS011;20582;52.196;20.952;2023-06-10T12:55:25;13.48;;;6.03;;
34317;SDS011;20582;52.196;20.952;2023-06-10T12:57:51;11.35;;;5.55;;
34317;SDS011;20582;52.196;20.952;2023-06-10T13:00:17;8.70;;;5.20;;
34317;SDS011;20582;52.196;20.952;2023-06-10T13:02:44;14.40;;;5.70;;
34317;SDS011;20582;52.196;20.952;2023-06-10T13:05:10;10.90;;;5.97;;
34317;SDS011;20582;52.196;20.952;2023-06-10T13:07:36;11.45;;;6.18;;
34317;SDS011;20582;52.196;20.952;2023-06-10T13:10:02;12.80;;;6.10;;
34317;SDS011;20582;52.196;20.952;2023-06-10T13:12:28;10.52;;;5.68;;
34317;SDS011;20582;52.196;20.952;2023-06-10T13:14:55;11.38;;;6.20;;
34317;SDS011;20582;52.196;20.952;2023-06-10T13:17:21;11.40;;;6.50;;
34317;SDS011;20582;52.196;20.952;2023-06-10T13:19:47;11.70;;;6.20;;
34317;SDS011;20582;52.196;20.952;2023-06-10T13:22:13;11.48;;;6.40;;
34317;SDS011;20582;52.196;20.952;2023-06-10T13:24:40;12.35;;;5.90;;
34317;SDS011;20582;52.196;20.952;2023-06-10T13:27:08;10.63;;;5.45;;
34317;SDS011;20582;52.196;20.952;2023-06-10T13:29:34;8.52;;;5.70;;
34317;SDS011;20582;52.196;20.952;2023-06-10T13:32:00;10.80;;;5.68;;
34317;SDS011;20582;52.196;20.952;2023-06-10T13:34:26;11.57;;;6.07;;
34317;SDS011;20582;52.196;20.952;2023-06-10T13:36:53;8.75;;;5.68;;
34317;SDS011;20582;52.196;20.952;2023-06-10T13:39:19;13.52;;;5.93;;
34317;SDS011;20582;52.196;20.952;2023-06-10T13:41:45;8.75;;;5.22;;
34317;SDS011;20582;52.196;20.952;2023-06-10T13:44:11;12.15;;;5.50;;
34317;SDS011;20582;52.196;20.952;2023-06-10T13:46:37;8.10;;;5.25;;
34317;SDS011;20582;52.196;20.952;2023-06-10T13:49:03;11.13;;;5.57;;
34317;SDS011;20582;52.196;20.952;2023-06-10T13:51:29;8.70;;;5.60;;
34317;SDS011;20582;52.196;20.952;2023-06-10T13:53:55;8.32;;;5.50;;
34317;SDS011;20582;52.196;20.952;2023-06-10T13:56:21;11.43;;;6.40;;
34317;SDS011;20582;52.196;20.952;2023-06-10T13:58:47;10.57;;;5.57;;
34317;SDS011;20582;52.196;20.952;2023-06-10T14:01:13;9.07;;;5.55;;
34317;SDS011;20582;52.196;20.952;2023-06-10T14:03:39;10.15;;;5.32;;
34317;SDS011;20582;52.196;20.952;2023-06-10T14:06:05;11.57;;;6.05;;
34317;SDS011;20582;52.196;20.952;2023-06-10T14:08:32;12.02;;;5.90;;
34317;SDS011;20582;52.196;20.952;2023-06-10T14:10:58;12.27;;;6.30;;
34317;SDS011;20582;52.196;20.952;2023-06-10T14:13:24;10.45;;;5.72;;
34317;SDS011;20582;52.196;20.952;2023-06-10T14:15:50;13.32;;;6.50;;
34317;SDS011;20582;52.196;20.952;2023-06-10T14:18:16;12.70;;;6.20;;
34317;SDS011;20582;52.196;20.952;2023-06-10T14:20:42;11.05;;;6.15;;
34317;SDS011;20582;52.196;20.952;2023-06-10T14:23:08;10.75;;;5.88;;
34317;SDS011;20582;52.196;20.952;2023-06-10T14:25:34;15.13;;;6.55;;
34317;SDS011;20582;52.196;20.952;2023-06-10T14:28:00;16.90;;;6.22;;
34317;SDS011;20582;52.196;20.952;2023-06-10T14:30:25;12.65;;;6.15;;
34317;SDS011;20582;52.196;20.952;2023-06-10T14:32:51;13.07;;;6.20;;
34317;SDS011;20582;52.196;20.952;2023-06-10T14:35:17;11.73;;;6.40;;
34317;SDS011;20582;52.196;20.952;2023-06-10T14:37:43;13.23;;;6.38;;